Terminal Aerodrome Forecast
Issued by NWS Wilmington, OH

Current Version | Previous Version | Graphics & Text | Print | Product List | Glossary On
Versions: 1 2 3 4 5 6 7 8 9 10 11 12 13 14 15 16 17 18 19 20 21 22 23 24 25 26
000
FTUS41 KILN 141740
TAFCVG
TAF
KCVG 141740Z 1418/1524 19010KT P6SM SCT250
     FM150600 21010KT P6SM BKN080 WS020/22040KT
     FM151200 21012G20KT P6SM BKN060
     FM151500 23015G27KT P6SM -SHRA OVC035
     FM151900 28014G24KT P6SM BKN080=

USA.gov is the U.S. government's official web portal to all federal, state and local government web resources and services.